sensor_id;sensor_type;location;lat;lon;timestamp;P1;durP1;ratioP1;P2;durP2;ratioP2
20036;SDS011;10179;42.640;23.312;2023-07-22T00:02:21;9.63;;;3.80;;
20036;SDS011;10179;42.640;23.312;2023-07-22T00:04:47;9.20;;;4.15;;
20036;SDS011;10179;42.640;23.312;2023-07-22T00:07:13;8.55;;;4.10;;
20036;SDS011;10179;42.640;23.312;2023-07-22T00:09:38;13.82;;;3.95;;
20036;SDS011;10179;42.640;23.312;2023-07-22T00:12:04;9.43;;;4.15;;
20036;SDS011;10179;42.640;23.312;2023-07-22T00:14:30;10.70;;;4.10;;
20036;SDS011;10179;42.640;23.312;2023-07-22T00:16:55;7.90;;;4.03;;
20036;SDS011;10179;42.640;23.312;2023-07-22T00:19:20;11.77;;;4.30;;
20036;SDS011;10179;42.640;23.312;2023-07-22T00:21:46;20.00;;;4.80;;
20036;SDS011;10179;42.640;23.312;2023-07-22T00:24:11;9.90;;;3.53;;
20036;SDS011;10179;42.640;23.312;2023-07-22T00:26:36;9.63;;;3.97;;
20036;SDS011;10179;42.640;23.312;2023-07-22T00:29:02;10.40;;;4.85;;
20036;SDS011;10179;42.640;23.312;2023-07-22T00:31:29;13.90;;;4.53;;
20036;SDS011;10179;42.640;23.312;2023-07-22T00:33:55;11.27;;;4.30;;
20036;SDS011;10179;42.640;23.312;2023-07-22T00:36:20;8.75;;;4.25;;
20036;SDS011;10179;42.640;23.312;2023-07-22T00:38:45;10.32;;;4.55;;
20036;SDS011;10179;42.640;23.312;2023-07-22T00:41:11;8.95;;;4.25;;
20036;SDS011;10179;42.640;23.312;2023-07-22T00:43:36;14.48;;;4.20;;
20036;SDS011;10179;42.640;23.312;2023-07-22T00:46:03;11.65;;;3.88;;
20036;SDS011;10179;42.640;23.312;2023-07-22T00:48:28;10.43;;;4.60;;
20036;SDS011;10179;42.640;23.312;2023-07-22T00:50:54;10.55;;;4.15;;
20036;SDS011;10179;42.640;23.312;2023-07-22T00:53:20;9.27;;;4.25;;
20036;SDS011;10179;42.640;23.312;2023-07-22T00:55:45;9.88;;;4.03;;
20036;SDS011;10179;42.640;23.312;2023-07-22T00:58:11;8.18;;;4.00;;
20036;SDS011;10179;42.640;23.312;2023-07-22T01:00:36;9.18;;;3.92;;
20036;SDS011;10179;42.640;23.312;2023-07-22T01:03:02;13.63;;;4.80;;
20036;SDS011;10179;42.640;23.312;2023-07-22T01:05:28;14.75;;;4.75;;
20036;SDS011;10179;42.640;23.312;2023-07-22T01:07:54;6.55;;;3.95;;
20036;SDS011;10179;42.640;23.312;2023-07-22T01:10:21;9.68;;;4.07;;
20036;SDS011;10179;42.640;23.312;2023-07-22T01:12:47;10.65;;;4.15;;
20036;SDS011;10179;42.640;23.312;2023-07-22T01:15:12;10.52;;;4.47;;
20036;SDS011;10179;42.640;23.312;2023-07-22T01:17:39;12.32;;;4.60;;
20036;SDS011;10179;42.640;23.312;2023-07-22T01:20:05;13.68;;;4.30;;
20036;SDS011;10179;42.640;23.312;2023-07-22T01:22:34;11.27;;;4.40;;
20036;SDS011;10179;42.640;23.312;2023-07-22T01:25:01;10.63;;;3.67;;
20036;SDS011;10179;42.640;23.312;2023-07-22T01:27:26;14.10;;;4.57;;
20036;SDS011;10179;42.640;23.312;2023-07-22T01:29:52;13.60;;;3.95;;
20036;SDS011;10179;42.640;23.312;2023-07-22T01:32:17;13.50;;;4.60;;
20036;SDS011;10179;42.640;23.312;2023-07-22T01:34:43;10.10;;;3.80;;
20036;SDS011;10179;42.640;23.312;2023-07-22T01:37:08;11.52;;;4.05;;
20036;SDS011;10179;42.640;23.312;2023-07-22T01:39:35;15.48;;;4.45;;
20036;SDS011;10179;42.640;23.312;2023-07-22T01:42:01;9.45;;;4.65;;
20036;SDS011;10179;42.640;23.312;2023-07-22T01:44:26;10.32;;;4.38;;
20036;SDS011;10179;42.640;23.312;2023-07-22T01:46:52;7.85;;;4.05;;
20036;SDS011;10179;42.640;23.312;2023-07-22T01:49:17;12.02;;;4.47;;
20036;SDS011;10179;42.640;23.312;2023-07-22T01:51:42;10.80;;;3.75;;
20036;SDS011;10179;42.640;23.312;2023-07-22T01:54:08;11.63;;;4.45;;
20036;SDS011;10179;42.640;23.312;2023-07-22T01:56:35;11.75;;;4.30;;
20036;SDS011;10179;42.640;23.312;2023-07-22T01:59:04;9.32;;;4.10;;
20036;SDS011;10179;42.640;23.312;2023-07-22T02:01:30;10.93;;;4.25;;
20036;SDS011;10179;42.640;23.312;2023-07-22T02:03:56;7.20;;;3.78;;
20036;SDS011;10179;42.640;23.312;2023-07-22T02:06:22;11.43;;;4.57;;
20036;SDS011;10179;42.640;23.312;2023-07-22T02:08:47;8.57;;;4.18;;
20036;SDS011;10179;42.640;23.312;2023-07-22T02:11:13;12.73;;;4.43;;
20036;SDS011;10179;42.640;23.312;2023-07-22T02:13:38;8.02;;;4.22;;
20036;SDS011;10179;42.640;23.312;2023-07-22T02:16:04;11.48;;;4.28;;
20036;SDS011;10179;42.640;23.312;2023-07-22T02:18:29;10.68;;;4.57;;
20036;SDS011;10179;42.640;23.312;2023-07-22T02:20:55;12.45;;;4.93;;
20036;SDS011;10179;42.640;23.312;2023-07-22T02:23:21;12.70;;;4.35;;
20036;SDS011;10179;42.640;23.312;2023-07-22T02:25:54;10.80;;;4.75;;
20036;SDS011;10179;42.640;23.312;2023-07-22T02:28:19;10.00;;;4.78;;
20036;SDS011;10179;42.640;23.312;2023-07-22T02:30:50;11.48;;;4.32;;
20036;SDS011;10179;42.640;23.312;2023-07-22T02:33:17;9.32;;;4.05;;
20036;SDS011;10179;42.640;23.312;2023-07-22T02:35:43;9.60;;;4.13;;
20036;SDS011;10179;42.640;23.312;2023-07-22T02:38:09;9.32;;;4.60;;
20036;SDS011;10179;42.640;23.312;2023-07-22T02:40:35;15.80;;;4.80;;
20036;SDS011;10179;42.640;23.312;2023-07-22T02:43:00;10.25;;;4.50;;
20036;SDS011;10179;42.640;23.312;2023-07-22T02:45:26;12.43;;;4.63;;
20036;SDS011;10179;42.640;23.312;2023-07-22T02:47:51;12.48;;;4.90;;
20036;SDS011;10179;42.640;23.312;2023-07-22T02:50:17;11.05;;;4.78;;
20036;SDS011;10179;42.640;23.312;2023-07-22T02:52:43;12.63;;;4.43;;
20036;SDS011;10179;42.640;23.312;2023-07-22T02:55:09;8.27;;;4.93;;
20036;SDS011;10179;42.640;23.312;2023-07-22T02:57:39;11.00;;;4.50;;
20036;SDS011;10179;42.640;23.312;2023-07-22T03:00:06;9.88;;;4.32;;
20036;SDS011;10179;42.640;23.312;2023-07-22T03:02:33;9.13;;;4.22;;
20036;SDS011;10179;42.640;23.312;2023-07-22T03:05:01;15.93;;;4.75;;
20036;SDS011;10179;42.640;23.312;2023-07-22T03:07:31;11.05;;;4.60;;
20036;SDS011;10179;42.640;23.312;2023-07-22T03:09:57;12.15;;;4.70;;
20036;SDS011;10179;42.640;23.312;2023-07-22T03:12:22;15.68;;;5.18;;
20036;SDS011;10179;42.640;23.312;2023-07-22T03:14:47;15.93;;;5.07;;
20036;SDS011;10179;42.640;23.312;2023-07-22T03:17:14;7.50;;;4.35;;
20036;SDS011;10179;42.640;23.312;2023-07-22T03:19:41;11.45;;;4.85;;
20036;SDS011;10179;42.640;23.312;2023-07-22T03:22:06;9.45;;;4.57;;
20036;SDS011;10179;42.640;23.312;2023-07-22T03:24:32;9.70;;;4.68;;
20036;SDS011;10179;42.640;23.312;2023-07-22T03:26:57;8.75;;;4.38;;
20036;SDS011;10179;42.640;23.312;2023-07-22T03:29:23;9.90;;;4.40;;
20036;SDS011;10179;42.640;23.312;2023-07-22T03:31:49;12.45;;;5.40;;
20036;SDS011;10179;42.640;23.312;2023-07-22T03:34:15;11.40;;;4.70;;
20036;SDS011;10179;42.640;23.312;2023-07-22T03:36:40;15.82;;;4.78;;
20036;SDS011;10179;42.640;23.312;2023-07-22T03:39:05;9.50;;;4.93;;
20036;SDS011;10179;42.640;23.312;2023-07-22T03:41:31;16.50;;;5.07;;
20036;SDS011;10179;42.640;23.312;2023-07-22T03:43:56;14.50;;;4.85;;
20036;SDS011;10179;42.640;23.312;2023-07-22T03:46:22;11.10;;;4.38;;
20036;SDS011;10179;42.640;23.312;2023-07-22T03:48:47;11.07;;;4.60;;
20036;SDS011;10179;42.640;23.312;2023-07-22T03:51:12;10.25;;;4.95;;
20036;SDS011;10179;42.640;23.312;2023-07-22T03:53:38;8.45;;;4.68;;
20036;SDS011;10179;42.640;23.312;2023-07-22T03:56:03;13.98;;;5.15;;
20036;SDS011;10179;42.640;23.312;2023-07-22T03:58:29;13.10;;;5.07;;
20036;SDS011;10179;42.640;23.312;2023-07-22T04:00:54;13.40;;;4.30;;
20036;SDS011;10179;42.640;23.312;2023-07-22T04:03:19;9.40;;;5.13;;
20036;SDS011;10179;42.640;23.312;2023-07-22T04:05:52;12.25;;;5.10;;
20036;SDS011;10179;42.640;23.312;2023-07-22T04:08:18;8.63;;;4.25;;
20036;SDS011;10179;42.640;23.312;2023-07-22T04:10:50;10.95;;;5.05;;
20036;SDS011;10179;42.640;23.312;2023-07-22T04:13:17;15.27;;;5.60;;
20036;SDS011;10179;42.640;23.312;2023-07-22T04:15:42;10.10;;;4.60;;
20036;SDS011;10179;42.640;23.312;2023-07-22T04:18:07;13.50;;;4.50;;
20036;SDS011;10179;42.640;23.312;2023-07-22T04:20:33;10.43;;;5.30;;
20036;SDS011;10179;42.640;23.312;2023-07-22T04:22:58;11.10;;;5.10;;
20036;SDS011;10179;42.640;23.312;2023-07-22T04:25:24;8.30;;;4.53;;
20036;SDS011;10179;42.640;23.312;2023-07-22T04:27:49;8.25;;;4.93;;
20036;SDS011;10179;42.640;23.312;2023-07-22T04:30:14;10.07;;;4.53;;
20036;SDS011;10179;42.640;23.312;2023-07-22T04:32:46;11.57;;;4.50;;
20036;SDS011;10179;42.640;23.312;2023-07-22T04:35:13;11.43;;;4.07;;
20036;SDS011;10179;42.640;23.312;2023-07-22T04:37:38;15.95;;;4.90;;
20036;SDS011;10179;42.640;23.312;2023-07-22T04:40:04;12.43;;;4.93;;
20036;SDS011;10179;42.640;23.312;2023-07-22T04:42:31;13.80;;;5.15;;
20036;SDS011;10179;42.640;23.312;2023-07-22T04:44:57;12.27;;;4.82;;
20036;SDS011;10179;42.640;23.312;2023-07-22T04:47:22;12.82;;;4.47;;
20036;SDS011;10179;42.640;23.312;2023-07-22T04:49:48;14.45;;;5.30;;
20036;SDS011;10179;42.640;23.312;2023-07-22T04:52:13;12.63;;;5.10;;
20036;SDS011;10179;42.640;23.312;2023-07-22T04:54:38;7.97;;;4.57;;
20036;SDS011;10179;42.640;23.312;2023-07-22T04:57:04;9.90;;;4.60;;
20036;SDS011;10179;42.640;23.312;2023-07-22T04:59:30;11.30;;;5.35;;
20036;SDS011;10179;42.640;23.312;2023-07-22T05:01:55;13.00;;;4.60;;
20036;SDS011;10179;42.640;23.312;2023-07-22T05:04:20;8.02;;;4.18;;
20036;SDS011;10179;42.640;23.312;2023-07-22T05:06:47;10.30;;;4.95;;
20036;SDS011;10179;42.640;23.312;2023-07-22T05:09:12;13.05;;;5.43;;
20036;SDS011;10179;42.640;23.312;2023-07-22T05:11:37;9.70;;;4.85;;
20036;SDS011;10179;42.640;23.312;2023-07-22T05:14:03;11.18;;;4.95;;
20036;SDS011;10179;42.640;23.312;2023-07-22T05:16:28;10.05;;;4.78;;
20036;SDS011;10179;42.640;23.312;2023-07-22T05:18:54;10.48;;;4.75;;
20036;SDS011;10179;42.640;23.312;2023-07-22T05:21:19;17.85;;;5.25;;
20036;SDS011;10179;42.640;23.312;2023-07-22T05:23:44;16.75;;;5.38;;
20036;SDS011;10179;42.640;23.312;2023-07-22T05:26:10;15.38;;;5.85;;
20036;SDS011;10179;42.640;23.312;2023-07-22T05:28:35;12.18;;;5.18;;
20036;SDS011;10179;42.640;23.312;2023-07-22T05:31:00;9.60;;;4.82;;
20036;SDS011;10179;42.640;23.312;2023-07-22T05:33:26;12.65;;;5.22;;
20036;SDS011;10179;42.640;23.312;2023-07-22T05:35:51;17.77;;;5.07;;
20036;SDS011;10179;42.640;23.312;2023-07-22T05:38:17;8.52;;;4.93;;
20036;SDS011;10179;42.640;23.312;2023-07-22T05:40:42;11.77;;;4.70;;
20036;SDS011;10179;42.640;23.312;2023-07-22T05:43:08;12.60;;;4.50;;
20036;SDS011;10179;42.640;23.312;2023-07-22T05:45:33;12.55;;;5.45;;
20036;SDS011;10179;42.640;23.312;2023-07-22T05:47:58;13.05;;;5.35;;
20036;SDS011;10179;42.640;23.312;2023-07-22T05:50:24;10.50;;;5.38;;
20036;SDS011;10179;42.640;23.312;2023-07-22T05:52:50;14.25;;;5.30;;
20036;SDS011;10179;42.640;23.312;2023-07-22T05:55:15;11.60;;;5.25;;
20036;SDS011;10179;42.640;23.312;2023-07-22T05:57:41;13.65;;;5.95;;
20036;SDS011;10179;42.640;23.312;2023-07-22T06:00:07;12.77;;;5.20;;
20036;SDS011;10179;42.640;23.312;2023-07-22T06:02:34;10.48;;;5.00;;
20036;SDS011;10179;42.640;23.312;2023-07-22T06:04:59;12.73;;;5.18;;
20036;SDS011;10179;42.640;23.312;2023-07-22T06:07:24;10.15;;;5.30;;
20036;SDS011;10179;42.640;23.312;2023-07-22T06:09:50;15.60;;;5.43;;
20036;SDS011;10179;42.640;23.312;2023-07-22T06:12:16;9.57;;;5.20;;
20036;SDS011;10179;42.640;23.312;2023-07-22T06:14:41;8.55;;;5.32;;
20036;SDS011;10179;42.640;23.312;2023-07-22T06:17:06;12.65;;;5.72;;
20036;SDS011;10179;42.640;23.312;2023-07-22T06:19:32;13.93;;;5.32;;
20036;SDS011;10179;42.640;23.312;2023-07-22T06:21:58;16.50;;;5.85;;
20036;SDS011;10179;42.640;23.312;2023-07-22T06:24:23;8.20;;;4.95;;
20036;SDS011;10179;42.640;23.312;2023-07-22T06:26:49;14.15;;;5.40;;
20036;SDS011;10179;42.640;23.312;2023-07-22T06:29:14;15.18;;;5.20;;
20036;SDS011;10179;42.640;23.312;2023-07-22T06:31:39;14.48;;;5.95;;
20036;SDS011;10179;42.640;23.312;2023-07-22T06:34:05;11.40;;;6.15;;
20036;SDS011;10179;42.640;23.312;2023-07-22T06:36:30;12.35;;;6.13;;
20036;SDS011;10179;42.640;23.312;2023-07-22T06:38:56;14.25;;;6.13;;
20036;SDS011;10179;42.640;23.312;2023-07-22T06:41:21;11.88;;;6.22;;
20036;SDS011;10179;42.640;23.312;2023-07-22T06:43:49;17.40;;;6.47;;
20036;SDS011;10179;42.640;23.312;2023-07-22T06:46:15;13.85;;;6.10;;
20036;SDS011;10179;42.640;23.312;2023-07-22T06:48:40;13.25;;;5.53;;
20036;SDS011;10179;42.640;23.312;2023-07-22T06:51:06;11.88;;;5.95;;
20036;SDS011;10179;42.640;23.312;2023-07-22T06:53:33;11.20;;;6.60;;
20036;SDS011;10179;42.640;23.312;2023-07-22T06:55:58;12.73;;;5.65;;
20036;SDS011;10179;42.640;23.312;2023-07-22T06:58:23;11.70;;;5.72;;
20036;SDS011;10179;42.640;23.312;2023-07-22T07:00:53;10.57;;;5.53;;
20036;SDS011;10179;42.640;23.312;2023-07-22T07:03:20;15.15;;;5.35;;
20036;SDS011;10179;42.640;23.312;2023-07-22T07:05:51;11.13;;;5.85;;
20036;SDS011;10179;42.640;23.312;2023-07-22T07:08:20;16.60;;;6.18;;
20036;SDS011;10179;42.640;23.312;2023-07-22T07:10:46;9.93;;;5.72;;
20036;SDS011;10179;42.640;23.312;2023-07-22T07:13:12;10.00;;;5.53;;
20036;SDS011;10179;42.640;23.312;2023-07-22T07:15:37;16.38;;;6.35;;
20036;SDS011;10179;42.640;23.312;2023-07-22T07:18:02;14.48;;;5.88;;
20036;SDS011;10179;42.640;23.312;2023-07-22T07:20:28;16.58;;;6.40;;
20036;SDS011;10179;42.640;23.312;2023-07-22T07:22:53;11.65;;;5.70;;
20036;SDS011;10179;42.640;23.312;2023-07-22T07:25:19;17.55;;;6.90;;
20036;SDS011;10179;42.640;23.312;2023-07-22T07:27:44;15.05;;;5.95;;
20036;SDS011;10179;42.640;23.312;2023-07-22T07:30:10;14.95;;;6.25;;
20036;SDS011;10179;42.640;23.312;2023-07-22T07:32:35;10.98;;;6.38;;
20036;SDS011;10179;42.640;23.312;2023-07-22T07:35:01;13.10;;;7.13;;
20036;SDS011;10179;42.640;23.312;2023-07-22T07:37:27;16.60;;;7.45;;
20036;SDS011;10179;42.640;23.312;2023-07-22T07:39:53;13.80;;;6.25;;
20036;SDS011;10179;42.640;23.312;2023-07-22T07:42:18;18.25;;;6.63;;
20036;SDS011;10179;42.640;23.312;2023-07-22T07:44:44;13.48;;;6.35;;
20036;SDS011;10179;42.640;23.312;2023-07-22T07:47:09;13.45;;;6.15;;
20036;SDS011;10179;42.640;23.312;2023-07-22T07:49:35;13.88;;;6.38;;
20036;SDS011;10179;42.640;23.312;2023-07-22T07:52:00;14.13;;;6.15;;
20036;SDS011;10179;42.640;23.312;2023-07-22T07:54:25;13.05;;;6.88;;
20036;SDS011;10179;42.640;23.312;2023-07-22T07:56:51;18.08;;;7.47;;
20036;SDS011;10179;42.640;23.312;2023-07-22T07:59:16;15.00;;;6.53;;
20036;SDS011;10179;42.640;23.312;2023-07-22T08:01:42;13.55;;;6.68;;
20036;SDS011;10179;42.640;23.312;2023-07-22T08:04:07;16.17;;;6.63;;
20036;SDS011;10179;42.640;23.312;2023-07-22T08:06:33;12.15;;;6.25;;
20036;SDS011;10179;42.640;23.312;2023-07-22T08:08:59;13.65;;;6.22;;
20036;SDS011;10179;42.640;23.312;2023-07-22T08:11:24;15.38;;;5.93;;
20036;SDS011;10179;42.640;23.312;2023-07-22T08:13:50;14.38;;;6.88;;
20036;SDS011;10179;42.640;23.312;2023-07-22T08:16:17;14.70;;;6.28;;
20036;SDS011;10179;42.640;23.312;2023-07-22T08:18:42;12.70;;;5.72;;
20036;SDS011;10179;42.640;23.312;2023-07-22T08:21:08;16.42;;;6.20;;
20036;SDS011;10179;42.640;23.312;2023-07-22T08:23:34;15.27;;;6.32;;
20036;SDS011;10179;42.640;23.312;2023-07-22T08:26:01;20.92;;;6.85;;
20036;SDS011;10179;42.640;23.312;2023-07-22T08:28:29;11.90;;;6.22;;
20036;SDS011;10179;42.640;23.312;2023-07-22T08:30:55;18.15;;;6.50;;
20036;SDS011;10179;42.640;23.312;2023-07-22T08:33:21;12.18;;;6.03;;
20036;SDS011;10179;42.640;23.312;2023-07-22T08:35:47;19.48;;;6.57;;
20036;SDS011;10179;42.640;23.312;2023-07-22T08:38:13;12.77;;;6.60;;
20036;SDS011;10179;42.640;23.312;2023-07-22T08:40:39;14.30;;;6.38;;
20036;SDS011;10179;42.640;23.312;2023-07-22T08:43:07;12.45;;;6.80;;
20036;SDS011;10179;42.640;23.312;2023-07-22T08:45:36;15.75;;;6.72;;
20036;SDS011;10179;42.640;23.312;2023-07-22T08:48:03;22.33;;;7.10;;
20036;SDS011;10179;42.640;23.312;2023-07-22T08:50:34;18.55;;;6.90;;
20036;SDS011;10179;42.640;23.312;2023-07-22T08:53:09;14.93;;;6.70;;
20036;SDS011;10179;42.640;23.312;2023-07-22T08:55:35;15.45;;;7.35;;
20036;SDS011;10179;42.640;23.312;2023-07-22T08:58:01;12.65;;;7.93;;
20036;SDS011;10179;42.640;23.312;2023-07-22T09:00:27;17.67;;;7.60;;
20036;SDS011;10179;42.640;23.312;2023-07-22T09:02:53;21.10;;;8.75;;
20036;SDS011;10179;42.640;23.312;2023-07-22T09:05:19;16.40;;;7.30;;
20036;SDS011;10179;42.640;23.312;2023-07-22T09:07:46;13.15;;;7.28;;
20036;SDS011;10179;42.640;23.312;2023-07-22T09:10:13;19.63;;;7.50;;
20036;SDS011;10179;42.640;23.312;2023-07-22T09:12:40;16.00;;;7.47;;
20036;SDS011;10179;42.640;23.312;2023-07-22T09:15:10;14.68;;;5.70;;
20036;SDS011;10179;42.640;23.312;2023-07-22T09:17:40;10.02;;;4.68;;
20036;SDS011;10179;42.640;23.312;2023-07-22T09:20:06;16.48;;;6.00;;
20036;SDS011;10179;42.640;23.312;2023-07-22T09:22:33;14.02;;;5.88;;
20036;SDS011;10179;42.640;23.312;2023-07-22T09:25:18;14.30;;;6.40;;
20036;SDS011;10179;42.640;23.312;2023-07-22T09:27:48;18.63;;;6.30;;
20036;SDS011;10179;42.640;23.312;2023-07-22T09:30:20;13.20;;;7.63;;
20036;SDS011;10179;42.640;23.312;2023-07-22T09:32:46;11.82;;;6.28;;
20036;SDS011;10179;42.640;23.312;2023-07-22T09:35:11;14.27;;;6.60;;
20036;SDS011;10179;42.640;23.312;2023-07-22T09:37:37;14.45;;;5.65;;
20036;SDS011;10179;42.640;23.312;2023-07-22T09:40:25;15.02;;;6.10;;
20036;SDS011;10179;42.640;23.312;2023-07-22T09:42:53;17.42;;;6.82;;
20036;SDS011;10179;42.640;23.312;2023-07-22T09:45:24;20.13;;;6.38;;
20036;SDS011;10179;42.640;23.312;2023-07-22T09:47:51;15.07;;;6.72;;
20036;SDS011;10179;42.640;23.312;2023-07-22T09:52:45;11.95;;;6.15;;
20036;SDS011;10179;42.640;23.312;2023-07-22T09:55:14;13.52;;;5.93;;
20036;SDS011;10179;42.640;23.312;2023-07-22T09:57:43;11.23;;;5.65;;
20036;SDS011;10179;42.640;23.312;2023-07-22T10:00:11;12.65;;;6.25;;
20036;SDS011;10179;42.640;23.312;2023-07-22T10:02:39;19.50;;;6.15;;
20036;SDS011;10179;42.640;23.312;2023-07-22T10:05:07;16.63;;;5.93;;
20036;SDS011;10179;42.640;23.312;2023-07-22T10:07:36;16.15;;;5.85;;
20036;SDS011;10179;42.640;23.312;2023-07-22T10:10:04;23.17;;;6.18;;
20036;SDS011;10179;42.640;23.312;2023-07-22T10:12:30;16.88;;;5.80;;
20036;SDS011;10179;42.640;23.312;2023-07-22T10:14:56;24.30;;;6.35;;
20036;SDS011;10179;42.640;23.312;2023-07-22T10:17:22;20.80;;;6.03;;
20036;SDS011;10179;42.640;23.312;2023-07-22T10:19:48;15.23;;;6.10;;
20036;SDS011;10179;42.640;23.312;2023-07-22T10:22:16;15.27;;;6.03;;
20036;SDS011;10179;42.640;23.312;2023-07-22T10:24:41;21.25;;;6.85;;
20036;SDS011;10179;42.640;23.312;2023-07-22T10:27:09;14.63;;;5.35;;
20036;SDS011;10179;42.640;23.312;2023-07-22T10:29:35;17.88;;;5.05;;
20036;SDS011;10179;42.640;23.312;2023-07-22T10:32:01;12.82;;;4.90;;
20036;SDS011;10179;42.640;23.312;2023-07-22T10:34:27;23.48;;;5.20;;
20036;SDS011;10179;42.640;23.312;2023-07-22T10:36:54;15.30;;;5.43;;
20036;SDS011;10179;42.640;23.312;2023-07-22T10:39:28;15.00;;;4.80;;
20036;SDS011;10179;42.640;23.312;2023-07-22T10:42:03;13.85;;;4.70;;
20036;SDS011;10179;42.640;23.312;2023-07-22T10:44:36;20.58;;;4.00;;
20036;SDS011;10179;42.640;23.312;2023-07-22T10:47:02;15.18;;;4.38;;
20036;SDS011;10179;42.640;23.312;2023-07-22T10:49:50;25.83;;;3.92;;
20036;SDS011;10179;42.640;23.312;2023-07-22T10:52:14;14.98;;;3.70;;
20036;SDS011;10179;42.640;23.312;2023-07-22T10:55:00;20.70;;;4.95;;
20036;SDS011;10179;42.640;23.312;2023-07-22T10:57:25;18.48;;;3.97;;
20036;SDS011;10179;42.640;23.312;2023-07-22T10:59:53;16.63;;;3.97;;
20036;SDS011;10179;42.640;23.312;2023-07-22T11:02:27;18.90;;;4.13;;
20036;SDS011;10179;42.640;23.312;2023-07-22T11:04:56;23.33;;;4.18;;
20036;SDS011;10179;42.640;23.312;2023-07-22T11:07:30;24.10;;;4.85;;
20036;SDS011;10179;42.640;23.312;2023-07-22T11:09:57;19.23;;;4.03;;
20036;SDS011;10179;42.640;23.312;2023-07-22T11:12:22;19.25;;;4.32;;
20036;SDS011;10179;42.640;23.312;2023-07-22T11:14:50;16.05;;;3.55;;
20036;SDS011;10179;42.640;23.312;2023-07-22T11:17:16;14.13;;;4.30;;
20036;SDS011;10179;42.640;23.312;2023-07-22T11:19:43;27.25;;;4.22;;
20036;SDS011;10179;42.640;23.312;2023-07-22T11:22:10;13.05;;;3.67;;
20036;SDS011;10179;42.640;23.312;2023-07-22T11:24:36;16.00;;;3.67;;
20036;SDS011;10179;42.640;23.312;2023-07-22T11:27:05;20.10;;;4.32;;
20036;SDS011;10179;42.640;23.312;2023-07-22T11:29:33;22.23;;;4.82;;
20036;SDS011;10179;42.640;23.312;2023-07-22T11:31:59;22.40;;;4.65;;
20036;SDS011;10179;42.640;23.312;2023-07-22T11:34:24;15.27;;;4.35;;
20036;SDS011;10179;42.640;23.312;2023-07-22T11:36:51;16.08;;;4.38;;
20036;SDS011;10179;42.640;23.312;2023-07-22T11:39:18;21.25;;;4.10;;
20036;SDS011;10179;42.640;23.312;2023-07-22T11:41:46;17.30;;;3.40;;
20036;SDS011;10179;42.640;23.312;2023-07-22T11:44:13;26.25;;;4.95;;
20036;SDS011;10179;42.640;23.312;2023-07-22T11:49:35;18.73;;;4.07;;
20036;SDS011;10179;42.640;23.312;2023-07-22T11:54:26;23.58;;;4.53;;
20036;SDS011;10179;42.640;23.312;2023-07-22T11:56:53;16.70;;;4.13;;
20036;SDS011;10179;42.640;23.312;2023-07-22T11:59:38;17.90;;;4.13;;
20036;SDS011;10179;42.640;23.312;2023-07-22T12:02:05;20.33;;;4.93;;
20036;SDS011;10179;42.640;23.312;2023-07-22T12:04:31;24.40;;;4.38;;
20036;SDS011;10179;42.640;23.312;2023-07-22T12:06:59;16.23;;;4.68;;
20036;SDS011;10179;42.640;23.312;2023-07-22T12:09:25;21.85;;;4.72;;
20036;SDS011;10179;42.640;23.312;2023-07-22T12:12:00;18.50;;;3.97;;
20036;SDS011;10179;42.640;23.312;2023-07-22T12:14:34;16.10;;;3.40;;
20036;SDS011;10179;42.640;23.312;2023-07-22T12:17:00;22.05;;;4.50;;
20036;SDS011;10179;42.640;23.312;2023-07-22T12:19:29;18.02;;;4.25;;
20036;SDS011;10179;42.640;23.312;2023-07-22T12:21:57;17.98;;;4.28;;
20036;SDS011;10179;42.640;23.312;2023-07-22T12:24:22;24.15;;;4.22;;
20036;SDS011;10179;42.640;23.312;2023-07-22T12:26:48;21.23;;;4.25;;
20036;SDS011;10179;42.640;23.312;2023-07-22T12:29:13;22.13;;;4.50;;
20036;SDS011;10179;42.640;23.312;2023-07-22T12:31:39;18.38;;;5.13;;
20036;SDS011;10179;42.640;23.312;2023-07-22T12:34:04;23.05;;;4.43;;
20036;SDS011;10179;42.640;23.312;2023-07-22T12:36:29;15.85;;;5.22;;
20036;SDS011;10179;42.640;23.312;2023-07-22T12:38:55;16.48;;;4.43;;
20036;SDS011;10179;42.640;23.312;2023-07-22T12:41:20;19.77;;;3.50;;
20036;SDS011;10179;42.640;23.312;2023-07-22T12:43:46;19.80;;;3.88;;
20036;SDS011;10179;42.640;23.312;2023-07-22T12:46:11;20.73;;;4.50;;
20036;SDS011;10179;42.640;23.312;2023-07-22T12:48:37;17.27;;;3.83;;
20036;SDS011;10179;42.640;23.312;2023-07-22T12:51:02;22.30;;;3.88;;
20036;SDS011;10179;42.640;23.312;2023-07-22T12:53:28;17.80;;;4.43;;
20036;SDS011;10179;42.640;23.312;2023-07-22T12:55:53;15.57;;;3.60;;
20036;SDS011;10179;42.640;23.312;2023-07-22T12:58:19;20.73;;;4.28;;
20036;SDS011;10179;42.640;23.312;2023-07-22T13:00:44;21.88;;;4.72;;
20036;SDS011;10179;42.640;23.312;2023-07-22T13:03:09;21.45;;;6.05;;
20036;SDS011;10179;42.640;23.312;2023-07-22T13:05:35;16.17;;;4.13;;
20036;SDS011;10179;42.640;23.312;2023-07-22T13:08:00;21.23;;;4.25;;
20036;SDS011;10179;42.640;23.312;2023-07-22T13:10:35;18.15;;;4.47;;
20036;SDS011;10179;42.640;23.312;2023-07-22T13:13:03;16.20;;;3.85;;
20036;SDS011;10179;42.640;23.312;2023-07-22T13:15:30;17.05;;;4.30;;
20036;SDS011;10179;42.640;23.312;2023-07-22T13:17:55;25.17;;;4.38;;
20036;SDS011;10179;42.640;23.312;2023-07-22T13:20:21;14.95;;;4.05;;
20036;SDS011;10179;42.640;23.312;2023-07-22T13:22:46;18.65;;;4.15;;
20036;SDS011;10179;42.640;23.312;2023-07-22T13:25:12;18.35;;;4.35;;
20036;SDS011;10179;42.640;23.312;2023-07-22T13:27:37;19.50;;;4.47;;
20036;SDS011;10179;42.640;23.312;2023-07-22T13:30:08;17.90;;;4.50;;
20036;SDS011;10179;42.640;23.312;2023-07-22T13:32:34;18.83;;;3.17;;
20036;SDS011;10179;42.640;23.312;2023-07-22T13:34:59;22.38;;;4.57;;
20036;SDS011;10179;42.640;23.312;2023-07-22T13:37:25;13.18;;;3.67;;
20036;SDS011;10179;42.640;23.312;2023-07-22T13:39:51;23.08;;;3.92;;
20036;SDS011;10179;42.640;23.312;2023-07-22T13:42:18;21.17;;;4.20;;
20036;SDS011;10179;42.640;23.312;2023-07-22T13:44:43;21.58;;;4.72;;
20036;SDS011;10179;42.640;23.312;2023-07-22T13:47:08;25.65;;;4.20;;
20036;SDS011;10179;42.640;23.312;2023-07-22T13:49:34;22.65;;;4.07;;
20036;SDS011;10179;42.640;23.312;2023-07-22T13:51:59;22.95;;;4.38;;
20036;SDS011;10179;42.640;23.312;2023-07-22T13:54:25;18.15;;;3.97;;
20036;SDS011;10179;42.640;23.312;2023-07-22T13:56:50;18.17;;;3.80;;
20036;SDS011;10179;42.640;23.312;2023-07-22T13:59:15;20.45;;;3.35;;
20036;SDS011;10179;42.640;23.312;2023-07-22T14:01:41;15.18;;;4.03;;
20036;SDS011;10179;42.640;23.312;2023-07-22T14:04:08;24.20;;;3.95;;
20036;SDS011;10179;42.640;23.312;2023-07-22T14:06:33;16.20;;;3.45;;
20036;SDS011;10179;42.640;23.312;2023-07-22T14:08:59;21.42;;;3.95;;
20036;SDS011;10179;42.640;23.312;2023-07-22T14:11:25;20.38;;;3.75;;
20036;SDS011;10179;42.640;23.312;2023-07-22T14:13:50;15.85;;;3.80;;
20036;SDS011;10179;42.640;23.312;2023-07-22T14:16:19;17.95;;;4.43;;
20036;SDS011;10179;42.640;23.312;2023-07-22T14:18:44;22.55;;;5.38;;
20036;SDS011;10179;42.640;23.312;2023-07-22T14:21:10;21.48;;;3.83;;
20036;SDS011;10179;42.640;23.312;2023-07-22T14:23:36;18.70;;;4.20;;
20036;SDS011;10179;42.640;23.312;2023-07-22T14:26:02;18.27;;;3.30;;
20036;SDS011;10179;42.640;23.312;2023-07-22T14:28:27;21.92;;;3.65;;